sensor_id;sensor_type;location;lat;lon;timestamp;temperature;humidity
9125;DHT22;4597;48.730;9.114;2022-11-09T00:01:28;11.00;99.90
9125;DHT22;4597;48.730;9.114;2022-11-09T00:03:58;11.00;99.90
9125;DHT22;4597;48.730;9.114;2022-11-09T00:06:24;11.00;99.90
9125;DHT22;4597;48.730;9.114;2022-11-09T00:08:50;11.00;99.90
9125;DHT22;4597;48.730;9.114;2022-11-09T00:11:16;11.00;99.90
9125;DHT22;4597;48.730;9.114;2022-11-09T00:13:43;11.10;99.90
9125;DHT22;4597;48.730;9.114;2022-11-09T00:16:10;11.10;99.90
9125;DHT22;4597;48.730;9.114;2022-11-09T00:18:37;11.10;99.90
9125;DHT22;4597;48.730;9.114;2022-11-09T00:21:10;11.10;99.90
9125;DHT22;4597;48.730;9.114;2022-11-09T00:23:37;11.10;99.90
9125;DHT22;4597;48.730;9.114;2022-11-09T00:26:05;11.10;99.90
9125;DHT22;4597;48.730;9.114;2022-11-09T00:28:31;11.10;99.90
9125;DHT22;4597;48.730;9.114;2022-11-09T00:31:08;11.20;99.90
9125;DHT22;4597;48.730;9.114;2022-11-09T00:33:34;11.20;99.90
9125;DHT22;4597;48.730;9.114;2022-11-09T00:36:04;11.10;99.90
9125;DHT22;4597;48.730;9.114;2022-11-09T00:38:34;11.20;99.90
9125;DHT22;4597;48.730;9.114;2022-11-09T00:41:01;11.20;99.90
9125;DHT22;4597;48.730;9.114;2022-11-09T00:43:27;11.20;99.90
9125;DHT22;4597;48.730;9.114;2022-11-09T00:45:53;11.20;99.90
9125;DHT22;4597;48.730;9.114;2022-11-09T00:48:18;11.20;99.90
9125;DHT22;4597;48.730;9.114;2022-11-09T00:50:49;11.20;99.90
9125;DHT22;4597;48.730;9.114;2022-11-09T00:53:14;11.20;99.90
9125;DHT22;4597;48.730;9.114;2022-11-09T00:55:40;11.30;99.90
9125;DHT22;4597;48.730;9.114;2022-11-09T00:58:05;11.30;99.90
9125;DHT22;4597;48.730;9.114;2022-11-09T01:00:31;11.30;99.90
9125;DHT22;4597;48.730;9.114;2022-11-09T01:02:56;11.20;99.90
9125;DHT22;4597;48.730;9.114;2022-11-09T01:05:22;11.20;99.90
9125;DHT22;4597;48.730;9.114;2022-11-09T01:07:47;11.20;99.90
9125;DHT22;4597;48.730;9.114;2022-11-09T01:10:13;11.20;99.90
9125;DHT22;4597;48.730;9.114;2022-11-09T01:12:38;11.20;99.90
9125;DHT22;4597;48.730;9.114;2022-11-09T01:15:04;11.20;99.90
9125;DHT22;4597;48.730;9.114;2022-11-09T01:17:30;11.20;99.90
9125;DHT22;4597;48.730;9.114;2022-11-09T01:19:56;11.20;99.90
9125;DHT22;4597;48.730;9.114;2022-11-09T01:22:21;11.20;99.90
9125;DHT22;4597;48.730;9.114;2022-11-09T01:24:47;11.30;99.90
9125;DHT22;4597;48.730;9.114;2022-11-09T01:27:13;11.30;99.90
9125;DHT22;4597;48.730;9.114;2022-11-09T01:29:38;11.30;99.90
9125;DHT22;4597;48.730;9.114;2022-11-09T01:32:04;11.30;99.90
9125;DHT22;4597;48.730;9.114;2022-11-09T01:34:29;11.30;99.90
9125;DHT22;4597;48.730;9.114;2022-11-09T01:36:55;11.30;99.90
9125;DHT22;4597;48.730;9.114;2022-11-09T01:39:21;11.20;99.90
9125;DHT22;4597;48.730;9.114;2022-11-09T01:41:47;11.20;99.90
9125;DHT22;4597;48.730;9.114;2022-11-09T01:44:17;11.20;99.90
9125;DHT22;4597;48.730;9.114;2022-11-09T01:51:57;11.00;99.90
9125;DHT22;4597;48.730;9.114;2022-11-09T01:54:27;11.00;99.90
9125;DHT22;4597;48.730;9.114;2022-11-09T01:57:00;11.00;99.90
9125;DHT22;4597;48.730;9.114;2022-11-09T01:59:30;11.00;99.90
9125;DHT22;4597;48.730;9.114;2022-11-09T02:01:58;11.00;99.90
9125;DHT22;4597;48.730;9.114;2022-11-09T02:04:29;11.00;99.90
9125;DHT22;4597;48.730;9.114;2022-11-09T02:06:58;11.00;99.90
9125;DHT22;4597;48.730;9.114;2022-11-09T02:09:40;11.00;99.90
9125;DHT22;4597;48.730;9.114;2022-11-09T02:12:08;11.00;99.90
9125;DHT22;4597;48.730;9.114;2022-11-09T02:14:34;11.00;99.90
9125;DHT22;4597;48.730;9.114;2022-11-09T02:17:01;11.00;99.90
9125;DHT22;4597;48.730;9.114;2022-11-09T02:19:26;11.10;99.90
9125;DHT22;4597;48.730;9.114;2022-11-09T02:21:52;11.00;99.90
9125;DHT22;4597;48.730;9.114;2022-11-09T02:24:18;11.00;99.90
9125;DHT22;4597;48.730;9.114;2022-11-09T02:26:47;11.00;99.90
9125;DHT22;4597;48.730;9.114;2022-11-09T02:29:17;11.00;99.90
9125;DHT22;4597;48.730;9.114;2022-11-09T02:31:47;11.00;99.90
9125;DHT22;4597;48.730;9.114;2022-11-09T02:34:18;11.00;99.90
9125;DHT22;4597;48.730;9.114;2022-11-09T02:36:44;11.00;99.90
9125;DHT22;4597;48.730;9.114;2022-11-09T02:39:10;11.10;99.90
9125;DHT22;4597;48.730;9.114;2022-11-09T02:41:57;11.10;99.90
9125;DHT22;4597;48.730;9.114;2022-11-09T02:44:24;11.10;99.90
9125;DHT22;4597;48.730;9.114;2022-11-09T02:46:50;11.10;99.90
9125;DHT22;4597;48.730;9.114;2022-11-09T02:49:16;11.10;99.90
9125;DHT22;4597;48.730;9.114;2022-11-09T02:51:42;11.00;99.90
9125;DHT22;4597;48.730;9.114;2022-11-09T02:54:07;11.00;99.90
9125;DHT22;4597;48.730;9.114;2022-11-09T02:56:33;11.00;99.90
9125;DHT22;4597;48.730;9.114;2022-11-09T02:58:58;11.00;99.90
9125;DHT22;4597;48.730;9.114;2022-11-09T03:01:24;11.00;99.90
9125;DHT22;4597;48.730;9.114;2022-11-09T03:03:49;11.00;99.90
9125;DHT22;4597;48.730;9.114;2022-11-09T03:06:15;11.00;99.90
9125;DHT22;4597;48.730;9.114;2022-11-09T03:08:40;10.90;99.90
9125;DHT22;4597;48.730;9.114;2022-11-09T03:11:06;10.90;99.90
9125;DHT22;4597;48.730;9.114;2022-11-09T03:13:32;10.90;99.90
9125;DHT22;4597;48.730;9.114;2022-11-09T03:16:03;10.90;99.90
9125;DHT22;4597;48.730;9.114;2022-11-09T03:18:29;10.90;99.90
9125;DHT22;4597;48.730;9.114;2022-11-09T03:20:54;10.90;99.90
9125;DHT22;4597;48.730;9.114;2022-11-09T03:23:24;10.90;99.90
9125;DHT22;4597;48.730;9.114;2022-11-09T03:25:50;10.90;99.90
9125;DHT22;4597;48.730;9.114;2022-11-09T03:28:15;10.80;99.90
9125;DHT22;4597;48.730;9.114;2022-11-09T03:30:41;10.80;99.90
9125;DHT22;4597;48.730;9.114;2022-11-09T03:33:06;10.80;99.90
9125;DHT22;4597;48.730;9.114;2022-11-09T03:35:36;10.80;99.90
9125;DHT22;4597;48.730;9.114;2022-11-09T03:38:02;10.80;99.90
9125;DHT22;4597;48.730;9.114;2022-11-09T03:40:29;10.80;99.90
9125;DHT22;4597;48.730;9.114;2022-11-09T03:42:55;10.80;99.90
9125;DHT22;4597;48.730;9.114;2022-11-09T03:45:20;10.80;99.90
9125;DHT22;4597;48.730;9.114;2022-11-09T03:47:46;10.80;99.90
9125;DHT22;4597;48.730;9.114;2022-11-09T03:50:13;10.80;99.90
9125;DHT22;4597;48.730;9.114;2022-11-09T03:52:41;10.80;99.90
9125;DHT22;4597;48.730;9.114;2022-11-09T03:55:08;10.80;99.90
9125;DHT22;4597;48.730;9.114;2022-11-09T03:57:33;10.80;99.90
9125;DHT22;4597;48.730;9.114;2022-11-09T03:59:59;10.90;99.90
9125;DHT22;4597;48.730;9.114;2022-11-09T04:02:24;10.90;99.90
9125;DHT22;4597;48.730;9.114;2022-11-09T04:04:50;10.90;99.90
9125;DHT22;4597;48.730;9.114;2022-11-09T04:07:15;10.80;99.90
9125;DHT22;4597;48.730;9.114;2022-11-09T04:09:41;10.80;99.90
9125;DHT22;4597;48.730;9.114;2022-11-09T04:12:06;10.80;99.90
9125;DHT22;4597;48.730;9.114;2022-11-09T04:14:32;10.80;99.90
9125;DHT22;4597;48.730;9.114;2022-11-09T04:16:57;10.80;99.90
9125;DHT22;4597;48.730;9.114;2022-11-09T04:19:23;10.80;99.90
9125;DHT22;4597;48.730;9.114;2022-11-09T04:21:48;10.80;99.90
9125;DHT22;4597;48.730;9.114;2022-11-09T04:24:14;10.80;99.90
9125;DHT22;4597;48.730;9.114;2022-11-09T04:26:40;10.80;99.90
9125;DHT22;4597;48.730;9.114;2022-11-09T04:29:06;10.80;99.90
9125;DHT22;4597;48.730;9.114;2022-11-09T04:31:31;10.80;99.90
9125;DHT22;4597;48.730;9.114;2022-11-09T04:33:57;10.80;99.90
9125;DHT22;4597;48.730;9.114;2022-11-09T04:36:22;10.80;99.90
9125;DHT22;4597;48.730;9.114;2022-11-09T04:38:48;10.70;99.90
9125;DHT22;4597;48.730;9.114;2022-11-09T04:41:13;10.70;99.90
9125;DHT22;4597;48.730;9.114;2022-11-09T04:43:39;10.70;99.90
9125;DHT22;4597;48.730;9.114;2022-11-09T04:46:05;10.70;99.90
9125;DHT22;4597;48.730;9.114;2022-11-09T04:48:31;10.70;99.90
9125;DHT22;4597;48.730;9.114;2022-11-09T04:51:07;10.80;99.90
9125;DHT22;4597;48.730;9.114;2022-11-09T04:53:35;10.80;99.90
9125;DHT22;4597;48.730;9.114;2022-11-09T04:56:01;10.80;99.90
9125;DHT22;4597;48.730;9.114;2022-11-09T04:58:26;10.80;99.90
9125;DHT22;4597;48.730;9.114;2022-11-09T05:00:52;10.90;99.90
9125;DHT22;4597;48.730;9.114;2022-11-09T05:03:18;10.90;99.90
9125;DHT22;4597;48.730;9.114;2022-11-09T05:05:44;10.90;99.90
9125;DHT22;4597;48.730;9.114;2022-11-09T05:08:10;11.00;99.90
9125;DHT22;4597;48.730;9.114;2022-11-09T05:10:36;11.00;99.90
9125;DHT22;4597;48.730;9.114;2022-11-09T05:13:06;11.00;99.90
9125;DHT22;4597;48.730;9.114;2022-11-09T05:15:33;11.00;99.90
9125;DHT22;4597;48.730;9.114;2022-11-09T05:17:59;11.00;99.90
9125;DHT22;4597;48.730;9.114;2022-11-09T05:20:26;11.00;99.90
9125;DHT22;4597;48.730;9.114;2022-11-09T05:22:51;11.00;99.90
9125;DHT22;4597;48.730;9.114;2022-11-09T05:25:36;11.00;99.90
9125;DHT22;4597;48.730;9.114;2022-11-09T05:28:01;11.00;99.90
9125;DHT22;4597;48.730;9.114;2022-11-09T05:30:27;11.00;99.90
9125;DHT22;4597;48.730;9.114;2022-11-09T05:32:52;11.00;99.90
9125;DHT22;4597;48.730;9.114;2022-11-09T05:35:18;11.00;99.90
9125;DHT22;4597;48.730;9.114;2022-11-09T05:37:47;11.00;99.90
9125;DHT22;4597;48.730;9.114;2022-11-09T05:40:17;11.00;99.90
9125;DHT22;4597;48.730;9.114;2022-11-09T05:42:43;11.00;99.90
9125;DHT22;4597;48.730;9.114;2022-11-09T05:45:11;11.00;99.90
9125;DHT22;4597;48.730;9.114;2022-11-09T05:47:38;11.00;99.90
9125;DHT22;4597;48.730;9.114;2022-11-09T05:50:05;11.00;99.90
9125;DHT22;4597;48.730;9.114;2022-11-09T05:52:31;11.00;99.90
9125;DHT22;4597;48.730;9.114;2022-11-09T05:54:57;11.00;99.90
9125;DHT22;4597;48.730;9.114;2022-11-09T05:57:25;11.00;99.90
9125;DHT22;4597;48.730;9.114;2022-11-09T05:59:51;11.00;99.90
9125;DHT22;4597;48.730;9.114;2022-11-09T06:02:16;11.00;99.90
9125;DHT22;4597;48.730;9.114;2022-11-09T06:04:42;11.00;99.90
9125;DHT22;4597;48.730;9.114;2022-11-09T06:07:07;11.00;99.90
9125;DHT22;4597;48.730;9.114;2022-11-09T06:09:33;11.00;99.90
9125;DHT22;4597;48.730;9.114;2022-11-09T06:11:58;11.10;99.90
9125;DHT22;4597;48.730;9.114;2022-11-09T06:14:24;11.00;99.90
9125;DHT22;4597;48.730;9.114;2022-11-09T06:16:49;11.10;99.90
9125;DHT22;4597;48.730;9.114;2022-11-09T06:19:15;11.00;99.90
9125;DHT22;4597;48.730;9.114;2022-11-09T06:21:40;11.10;99.90
9125;DHT22;4597;48.730;9.114;2022-11-09T06:24:06;11.00;99.90
9125;DHT22;4597;48.730;9.114;2022-11-09T06:26:32;11.00;99.90
9125;DHT22;4597;48.730;9.114;2022-11-09T06:28:57;10.90;99.90
9125;DHT22;4597;48.730;9.114;2022-11-09T06:31:23;10.90;99.90
9125;DHT22;4597;48.730;9.114;2022-11-09T06:33:48;10.90;99.90
9125;DHT22;4597;48.730;9.114;2022-11-09T06:36:14;10.90;99.90
9125;DHT22;4597;48.730;9.114;2022-11-09T06:38:39;10.90;99.90
9125;DHT22;4597;48.730;9.114;2022-11-09T06:41:05;10.90;99.90
9125;DHT22;4597;48.730;9.114;2022-11-09T06:43:31;11.00;99.90
9125;DHT22;4597;48.730;9.114;2022-11-09T06:45:56;11.10;99.90
9125;DHT22;4597;48.730;9.114;2022-11-09T06:48:22;11.00;99.90
9125;DHT22;4597;48.730;9.114;2022-11-09T06:50:48;11.00;99.90
9125;DHT22;4597;48.730;9.114;2022-11-09T06:53:15;10.90;99.90
9125;DHT22;4597;48.730;9.114;2022-11-09T06:55:41;10.80;99.90
9125;DHT22;4597;48.730;9.114;2022-11-09T06:58:12;10.80;99.90
9125;DHT22;4597;48.730;9.114;2022-11-09T07:00:42;10.80;99.90
9125;DHT22;4597;48.730;9.114;2022-11-09T07:03:13;10.90;99.90
9125;DHT22;4597;48.730;9.114;2022-11-09T07:05:39;10.90;99.90
9125;DHT22;4597;48.730;9.114;2022-11-09T07:08:05;10.90;99.90
9125;DHT22;4597;48.730;9.114;2022-11-09T07:10:30;10.90;99.90
9125;DHT22;4597;48.730;9.114;2022-11-09T07:12:57;10.90;99.90
9125;DHT22;4597;48.730;9.114;2022-11-09T07:15:23;10.90;99.90
9125;DHT22;4597;48.730;9.114;2022-11-09T07:17:48;10.90;99.90
9125;DHT22;4597;48.730;9.114;2022-11-09T07:20:14;10.90;99.90
9125;DHT22;4597;48.730;9.114;2022-11-09T07:22:40;11.00;99.90
9125;DHT22;4597;48.730;9.114;2022-11-09T07:25:08;11.00;99.90
9125;DHT22;4597;48.730;9.114;2022-11-09T07:27:34;11.00;99.90
9125;DHT22;4597;48.730;9.114;2022-11-09T07:30:00;11.00;99.90
9125;DHT22;4597;48.730;9.114;2022-11-09T07:32:26;11.00;99.90
9125;DHT22;4597;48.730;9.114;2022-11-09T07:34:51;10.90;99.90
9125;DHT22;4597;48.730;9.114;2022-11-09T07:37:17;11.00;99.90
9125;DHT22;4597;48.730;9.114;2022-11-09T07:39:43;10.90;99.90
9125;DHT22;4597;48.730;9.114;2022-11-09T07:42:08;10.90;99.90
9125;DHT22;4597;48.730;9.114;2022-11-09T07:44:34;10.90;99.90
9125;DHT22;4597;48.730;9.114;2022-11-09T07:46:59;10.90;99.90
9125;DHT22;4597;48.730;9.114;2022-11-09T07:49:25;10.90;99.90
9125;DHT22;4597;48.730;9.114;2022-11-09T07:51:50;11.00;99.90
9125;DHT22;4597;48.730;9.114;2022-11-09T07:54:16;10.90;99.90
9125;DHT22;4597;48.730;9.114;2022-11-09T07:56:41;11.00;99.90
9125;DHT22;4597;48.730;9.114;2022-11-09T07:59:07;11.00;99.90
9125;DHT22;4597;48.730;9.114;2022-11-09T08:01:32;11.00;99.90
9125;DHT22;4597;48.730;9.114;2022-11-09T08:03:58;11.00;99.90
9125;DHT22;4597;48.730;9.114;2022-11-09T08:06:24;11.10;99.90
9125;DHT22;4597;48.730;9.114;2022-11-09T08:08:53;11.10;99.90
9125;DHT22;4597;48.730;9.114;2022-11-09T08:11:19;11.20;99.90
9125;DHT22;4597;48.730;9.114;2022-11-09T08:13:45;11.20;99.90
9125;DHT22;4597;48.730;9.114;2022-11-09T08:16:11;11.20;99.90
9125;DHT22;4597;48.730;9.114;2022-11-09T08:18:36;11.30;99.90
9125;DHT22;4597;48.730;9.114;2022-11-09T08:21:03;11.30;99.90
9125;DHT22;4597;48.730;9.114;2022-11-09T08:23:29;11.40;99.90
9125;DHT22;4597;48.730;9.114;2022-11-09T08:25:55;11.40;99.90
9125;DHT22;4597;48.730;9.114;2022-11-09T08:28:21;11.60;99.90
9125;DHT22;4597;48.730;9.114;2022-11-09T08:30:55;11.60;99.90
9125;DHT22;4597;48.730;9.114;2022-11-09T08:33:21;11.60;99.90
9125;DHT22;4597;48.730;9.114;2022-11-09T08:35:48;11.60;99.90
9125;DHT22;4597;48.730;9.114;2022-11-09T08:38:13;11.70;99.90
9125;DHT22;4597;48.730;9.114;2022-11-09T08:40:39;11.70;99.90
9125;DHT22;4597;48.730;9.114;2022-11-09T08:43:06;11.70;99.90
9125;DHT22;4597;48.730;9.114;2022-11-09T08:45:34;11.70;99.90
9125;DHT22;4597;48.730;9.114;2022-11-09T08:48:00;11.80;99.90
9125;DHT22;4597;48.730;9.114;2022-11-09T08:50:27;11.80;99.90
9125;DHT22;4597;48.730;9.114;2022-11-09T08:52:53;11.80;99.90
9125;DHT22;4597;48.730;9.114;2022-11-09T08:55:19;11.80;99.90
9125;DHT22;4597;48.730;9.114;2022-11-09T08:57:45;11.80;99.90
9125;DHT22;4597;48.730;9.114;2022-11-09T09:00:11;11.90;99.90
9125;DHT22;4597;48.730;9.114;2022-11-09T09:02:37;11.90;99.90
9125;DHT22;4597;48.730;9.114;2022-11-09T09:05:03;11.90;99.90
9125;DHT22;4597;48.730;9.114;2022-11-09T09:07:28;11.90;99.90
9125;DHT22;4597;48.730;9.114;2022-11-09T09:09:54;11.90;99.90
9125;DHT22;4597;48.730;9.114;2022-11-09T09:12:19;12.00;99.90
9125;DHT22;4597;48.730;9.114;2022-11-09T09:14:45;12.00;99.90
9125;DHT22;4597;48.730;9.114;2022-11-09T09:17:11;12.10;99.90
9125;DHT22;4597;48.730;9.114;2022-11-09T09:19:36;12.10;99.90
9125;DHT22;4597;48.730;9.114;2022-11-09T09:22:02;12.20;99.90
9125;DHT22;4597;48.730;9.114;2022-11-09T09:24:27;12.30;99.90
9125;DHT22;4597;48.730;9.114;2022-11-09T09:26:53;12.40;99.90
9125;DHT22;4597;48.730;9.114;2022-11-09T09:29:19;12.50;99.90
9125;DHT22;4597;48.730;9.114;2022-11-09T09:31:44;12.60;99.90
9125;DHT22;4597;48.730;9.114;2022-11-09T09:34:10;12.80;99.90
9125;DHT22;4597;48.730;9.114;2022-11-09T09:36:37;12.80;99.90
9125;DHT22;4597;48.730;9.114;2022-11-09T09:39:02;12.90;99.90
9125;DHT22;4597;48.730;9.114;2022-11-09T09:41:37;13.00;99.90
9125;DHT22;4597;48.730;9.114;2022-11-09T09:44:25;13.10;99.90
9125;DHT22;4597;48.730;9.114;2022-11-09T09:47:09;13.10;99.90
9125;DHT22;4597;48.730;9.114;2022-11-09T09:49:40;13.10;99.90
9125;DHT22;4597;48.730;9.114;2022-11-09T09:54:48;13.10;99.90
9125;DHT22;4597;48.730;9.114;2022-11-09T09:57:18;13.20;99.90
9125;DHT22;4597;48.730;9.114;2022-11-09T09:59:48;13.20;99.90
9125;DHT22;4597;48.730;9.114;2022-11-09T10:02:26;13.20;99.90
9125;DHT22;4597;48.730;9.114;2022-11-09T10:04:55;13.20;99.90
9125;DHT22;4597;48.730;9.114;2022-11-09T10:07:36;13.30;99.90
9125;DHT22;4597;48.730;9.114;2022-11-09T10:13:07;13.50;99.90
9125;DHT22;4597;48.730;9.114;2022-11-09T10:18:26;13.60;99.90
9125;DHT22;4597;48.730;9.114;2022-11-09T10:21:10;13.70;99.90
9125;DHT22;4597;48.730;9.114;2022-11-09T10:26:28;13.80;99.90
9125;DHT22;4597;48.730;9.114;2022-11-09T10:29:01;13.90;99.90
9125;DHT22;4597;48.730;9.114;2022-11-09T10:31:31;14.00;99.90
9125;DHT22;4597;48.730;9.114;2022-11-09T10:34:16;14.00;99.90
9125;DHT22;4597;48.730;9.114;2022-11-09T10:36:46;14.00;99.90
9125;DHT22;4597;48.730;9.114;2022-11-09T10:39:14;14.00;99.90
9125;DHT22;4597;48.730;9.114;2022-11-09T10:41:43;14.10;99.90
9125;DHT22;4597;48.730;9.114;2022-11-09T10:44:13;14.10;99.90
9125;DHT22;4597;48.730;9.114;2022-11-09T10:47:10;14.10;99.90
9125;DHT22;4597;48.730;9.114;2022-11-09T10:49:37;14.20;99.90
9125;DHT22;4597;48.730;9.114;2022-11-09T10:52:04;14.30;99.90
9125;DHT22;4597;48.730;9.114;2022-11-09T10:54:32;14.30;99.90
9125;DHT22;4597;48.730;9.114;2022-11-09T10:57:10;14.30;99.90
9125;DHT22;4597;48.730;9.114;2022-11-09T11:02:52;14.50;99.90
9125;DHT22;4597;48.730;9.114;2022-11-09T11:07:45;14.60;99.90
9125;DHT22;4597;48.730;9.114;2022-11-09T11:12:43;14.60;99.90
9125;DHT22;4597;48.730;9.114;2022-11-09T11:15:28;14.60;99.90
9125;DHT22;4597;48.730;9.114;2022-11-09T11:18:12;14.60;99.90
9125;DHT22;4597;48.730;9.114;2022-11-09T11:20:39;14.70;99.90
9125;DHT22;4597;48.730;9.114;2022-11-09T11:23:13;14.70;99.90
9125;DHT22;4597;48.730;9.114;2022-11-09T11:28:39;14.80;99.90
9125;DHT22;4597;48.730;9.114;2022-11-09T11:31:27;14.80;99.90
9125;DHT22;4597;48.730;9.114;2022-11-09T11:33:52;14.80;99.90
9125;DHT22;4597;48.730;9.114;2022-11-09T11:36:41;14.70;99.90
9125;DHT22;4597;48.730;9.114;2022-11-09T11:39:43;14.70;99.90
9125;DHT22;4597;48.730;9.114;2022-11-09T11:42:38;14.70;99.90
9125;DHT22;4597;48.730;9.114;2022-11-09T11:50:40;14.70;99.90
9125;DHT22;4597;48.730;9.114;2022-11-09T11:55:54;14.90;99.90
9125;DHT22;4597;48.730;9.114;2022-11-09T11:58:53;15.00;99.90
9125;DHT22;4597;48.730;9.114;2022-11-09T12:01:46;15.00;99.90
9125;DHT22;4597;48.730;9.114;2022-11-09T12:04:52;15.00;99.90
9125;DHT22;4597;48.730;9.114;2022-11-09T12:07:42;15.00;99.90
9125;DHT22;4597;48.730;9.114;2022-11-09T12:10:18;15.10;99.90
9125;DHT22;4597;48.730;9.114;2022-11-09T12:15:38;15.00;99.90
9125;DHT22;4597;48.730;9.114;2022-11-09T12:20:57;15.00;99.90
9125;DHT22;4597;48.730;9.114;2022-11-09T12:23:48;14.90;99.90
9125;DHT22;4597;48.730;9.114;2022-11-09T12:32:30;14.80;99.90
9125;DHT22;4597;48.730;9.114;2022-11-09T12:35:18;14.80;99.90
9125;DHT22;4597;48.730;9.114;2022-11-09T12:37:53;14.80;99.90
9125;DHT22;4597;48.730;9.114;2022-11-09T12:40:30;14.80;99.90
9125;DHT22;4597;48.730;9.114;2022-11-09T12:43:13;14.80;99.90
9125;DHT22;4597;48.730;9.114;2022-11-09T12:45:41;14.80;99.90
9125;DHT22;4597;48.730;9.114;2022-11-09T12:48:31;14.80;99.90
9125;DHT22;4597;48.730;9.114;2022-11-09T12:50:58;14.80;99.90
9125;DHT22;4597;48.730;9.114;2022-11-09T12:53:31;14.80;99.90
9125;DHT22;4597;48.730;9.114;2022-11-09T12:56:07;14.70;99.90
9125;DHT22;4597;48.730;9.114;2022-11-09T12:58:35;14.80;99.90
9125;DHT22;4597;48.730;9.114;2022-11-09T13:01:03;14.70;99.90
9125;DHT22;4597;48.730;9.114;2022-11-09T13:03:33;14.70;99.90
9125;DHT22;4597;48.730;9.114;2022-11-09T13:08:54;14.70;99.90
9125;DHT22;4597;48.730;9.114;2022-11-09T13:11:29;14.70;99.90
9125;DHT22;4597;48.730;9.114;2022-11-09T13:16:55;14.60;99.90
9125;DHT22;4597;48.730;9.114;2022-11-09T13:22:00;14.60;99.90
9125;DHT22;4597;48.730;9.114;2022-11-09T13:27:01;14.60;99.90
9125;DHT22;4597;48.730;9.114;2022-11-09T13:29:48;14.60;99.90
9125;DHT22;4597;48.730;9.114;2022-11-09T13:34:52;14.60;99.90
9125;DHT22;4597;48.730;9.114;2022-11-09T13:37:54;14.60;99.90
9125;DHT22;4597;48.730;9.114;2022-11-09T13:43:12;14.60;99.90
9125;DHT22;4597;48.730;9.114;2022-11-09T13:48:44;14.60;99.90
9125;DHT22;4597;48.730;9.114;2022-11-09T13:51:13;14.50;99.90
9125;DHT22;4597;48.730;9.114;2022-11-09T13:53:55;14.50;99.90
9125;DHT22;4597;48.730;9.114;2022-11-09T14:01:48;14.50;99.90
9125;DHT22;4597;48.730;9.114;2022-11-09T14:04:22;14.50;99.90
9125;DHT22;4597;48.730;9.114;2022-11-09T14:06:48;14.50;99.90
9125;DHT22;4597;48.730;9.114;2022-11-09T14:09:19;14.50;99.90
9125;DHT22;4597;48.730;9.114;2022-11-09T14:14:47;14.50;99.90
9125;DHT22;4597;48.730;9.114;2022-11-09T14:20:26;14.40;99.90
9125;DHT22;4597;48.730;9.114;2022-11-09T14:22:54;14.40;99.90
9125;DHT22;4597;48.730;9.114;2022-11-09T14:25:22;14.30;99.90
9125;DHT22;4597;48.730;9.114;2022-11-09T14:27:50;14.30;99.90
9125;DHT22;4597;48.730;9.114;2022-11-09T14:30:23;14.20;99.90
9125;DHT22;4597;48.730;9.114;2022-11-09T14:32:50;14.30;99.90
9125;DHT22;4597;48.730;9.114;2022-11-09T14:35:22;14.20;99.90
9125;DHT22;4597;48.730;9.114;2022-11-09T14:37:49;14.20;99.90
9125;DHT22;4597;48.730;9.114;2022-11-09T14:40:27;14.20;99.90
9125;DHT22;4597;48.730;9.114;2022-11-09T14:43:02;14.20;99.90
9125;DHT22;4597;48.730;9.114;2022-11-09T14:45:29;14.10;99.90
9125;DHT22;4597;48.730;9.114;2022-11-09T14:47:57;14.10;99.90
9125;DHT22;4597;48.730;9.114;2022-11-09T14:50:36;14.10;99.90
9125;DHT22;4597;48.730;9.114;2022-11-09T14:53:03;14.10;99.90
9125;DHT22;4597;48.730;9.114;2022-11-09T14:55:31;14.10;99.90
9125;DHT22;4597;48.730;9.114;2022-11-09T14:57:57;14.10;99.90
9125;DHT22;4597;48.730;9.114;2022-11-09T15:02:52;14.00;99.90
9125;DHT22;4597;48.730;9.114;2022-11-09T15:05:38;14.00;99.90
9125;DHT22;4597;48.730;9.114;2022-11-09T15:08:14;14.00;99.90
9125;DHT22;4597;48.730;9.114;2022-11-09T15:10:40;13.90;99.90
9125;DHT22;4597;48.730;9.114;2022-11-09T15:13:12;13.90;99.90
9125;DHT22;4597;48.730;9.114;2022-11-09T15:15:37;13.90;99.90
9125;DHT22;4597;48.730;9.114;2022-11-09T15:18:04;13.90;99.90
9125;DHT22;4597;48.730;9.114;2022-11-09T15:20:32;13.80;99.90
9125;DHT22;4597;48.730;9.114;2022-11-09T15:25:50;13.80;99.90
9125;DHT22;4597;48.730;9.114;2022-11-09T15:28:25;13.70;99.90
9125;DHT22;4597;48.730;9.114;2022-11-09T15:35:59;13.60;99.90
9125;DHT22;4597;48.730;9.114;2022-11-09T15:38:57;13.60;99.90
9125;DHT22;4597;48.730;9.114;2022-11-09T15:41:23;13.50;99.90
9125;DHT22;4597;48.730;9.114;2022-11-09T15:43:49;13.50;99.90
9125;DHT22;4597;48.730;9.114;2022-11-09T15:46:30;13.60;99.90
9125;DHT22;4597;48.730;9.114;2022-11-09T15:49:05;13.50;99.90
9125;DHT22;4597;48.730;9.114;2022-11-09T15:51:34;13.50;99.90
9125;DHT22;4597;48.730;9.114;2022-11-09T15:54:00;13.40;99.90
9125;DHT22;4597;48.730;9.114;2022-11-09T15:56:26;13.40;99.90
9125;DHT22;4597;48.730;9.114;2022-11-09T15:58:51;13.40;99.90
9125;DHT22;4597;48.730;9.114;2022-11-09T16:01:17;13.40;99.90
9125;DHT22;4597;48.730;9.114;2022-11-09T16:03:43;13.40;99.90
9125;DHT22;4597;48.730;9.114;2022-11-09T16:06:09;13.40;99.90
9125;DHT22;4597;48.730;9.114;2022-11-09T16:08:36;13.40;99.90
9125;DHT22;4597;48.730;9.114;2022-11-09T16:11:03;13.40;99.90
9125;DHT22;4597;48.730;9.114;2022-11-09T16:13:29;13.30;99.90
9125;DHT22;4597;48.730;9.114;2022-11-09T16:16:01;13.30;99.90
9125;DHT22;4597;48.730;9.114;2022-11-09T16:18:27;13.30;99.90
9125;DHT22;4597;48.730;9.114;2022-11-09T16:20:52;13.20;99.90
9125;DHT22;4597;48.730;9.114;2022-11-09T16:23:18;13.20;99.90
9125;DHT22;4597;48.730;9.114;2022-11-09T16:25:43;13.10;99.90
9125;DHT22;4597;48.730;9.114;2022-11-09T16:28:09;13.10;99.90
9125;DHT22;4597;48.730;9.114;2022-11-09T16:30:35;13.00;99.90
9125;DHT22;4597;48.730;9.114;2022-11-09T16:33:00;13.00;99.90
9125;DHT22;4597;48.730;9.114;2022-11-09T16:35:26;13.00;99.90
9125;DHT22;4597;48.730;9.114;2022-11-09T16:37:51;12.90;99.90
9125;DHT22;4597;48.730;9.114;2022-11-09T16:40:19;12.90;99.90
9125;DHT22;4597;48.730;9.114;2022-11-09T16:42:45;12.90;99.90
9125;DHT22;4597;48.730;9.114;2022-11-09T16:45:13;12.90;99.90
9125;DHT22;4597;48.730;9.114;2022-11-09T16:47:44;12.90;99.90
9125;DHT22;4597;48.730;9.114;2022-11-09T16:50:10;12.90;99.90
9125;DHT22;4597;48.730;9.114;2022-11-09T16:52:36;12.90;99.90
9125;DHT22;4597;48.730;9.114;2022-11-09T16:55:02;12.80;99.90
9125;DHT22;4597;48.730;9.114;2022-11-09T16:57:28;12.90;99.90
9125;DHT22;4597;48.730;9.114;2022-11-09T16:59:54;12.80;99.90
9125;DHT22;4597;48.730;9.114;2022-11-09T17:02:19;12.80;99.90
9125;DHT22;4597;48.730;9.114;2022-11-09T17:04:44;12.80;99.90
9125;DHT22;4597;48.730;9.114;2022-11-09T17:07:10;12.80;99.90
9125;DHT22;4597;48.730;9.114;2022-11-09T17:09:36;12.80;99.90
9125;DHT22;4597;48.730;9.114;2022-11-09T17:12:02;12.80;99.90
9125;DHT22;4597;48.730;9.114;2022-11-09T17:14:28;12.80;99.90
9125;DHT22;4597;48.730;9.114;2022-11-09T17:16:54;12.70;99.90
9125;DHT22;4597;48.730;9.114;2022-11-09T17:19:19;12.70;99.90
9125;DHT22;4597;48.730;9.114;2022-11-09T17:21:45;12.70;99.90
9125;DHT22;4597;48.730;9.114;2022-11-09T17:24:11;12.70;99.90
9125;DHT22;4597;48.730;9.114;2022-11-09T17:26:37;12.70;99.90
9125;DHT22;4597;48.730;9.114;2022-11-09T17:29:04;12.60;99.90
9125;DHT22;4597;48.730;9.114;2022-11-09T17:31:30;12.60;99.90
9125;DHT22;4597;48.730;9.114;2022-11-09T17:33:55;12.60;99.90
9125;DHT22;4597;48.730;9.114;2022-11-09T17:36:22;12.60;99.90
9125;DHT22;4597;48.730;9.114;2022-11-09T17:38:47;12.60;99.90
9125;DHT22;4597;48.730;9.114;2022-11-09T17:41:15;12.60;99.90